Commerce City, CO

1:56 AM MST on November 27, 2014 (GMT -0700)
MesoWest Commerce City Admin Building CO US NEMPPA | Change Station
CLOSE
Current Station
Personal Weather Station
Location: Commerce City, CO
Elevation: 5121 ft
Nearby Weather Stations

Elev 5121 ft 39.81 °N, 104.93 °W | Updated 284 days ago

Partly Cloudy
Partly Cloudy
39 °F
Feels Like 39 °F
N
8
Wind Variable Wind from South
Gusts 9 mph

Today
High -- | Low -- °F
--% Chance of Precip.
Yesterday
High -- | Low -- °F
Precip. -- in
6:57 AM 4:36 PM
Waxing Crescent, 27% visible
Pressure 30.25 in
Visibility 10.0 miles
Clouds Mostly Cloudy 22000 ft
Dew Point 21 °F
Humidity 47%
Rainfall -999.00 in
Snow Depth Not available.
UV 0 out of 12
Pollen .10 out of 12
Air Quality Not available.
Flu Activity Not available.
METAR KDEN 270853Z 00000KT 10SM BKN220 01/M04 A3025 RMK AO2 SLP241 T00061044 55000

More Conditions Fewer Conditions

Pressure 30.25 in
Visibility 10.0 miles
Clouds Mostly Cloudy 22000 ft
Dew Point 21 °F
Humidity 47%
Rainfall -999.00 in
Snow Depth Not available.
UV 0 out of 12
Pollen .10 out of 12
Air Quality Not available.
Flu Activity Not available.
METAR KDEN 270853Z 00000KT 10SM BKN220 01/M04 A3025 RMK AO2 SLP241 T00061044 55000

More Conditions Fewer Conditions

10-Day Weather Forecast

Almanac

Astronomy

Nov. 27, 2014 Rise Set
Actual Time
Civil Twilight
Nautical Twilight
Astronomical Twilight
Moon
Length of Visible Light
Length of Day
Tomorrow will be .
, % of the Moon is Illuminated

Today's Extremes

State Highs State Lows

Community

WunderPhotos

Upload Photos

1,773,965 photos uploaded!

WunderBlogs® & News

Nearby

Air Quality

  Air Quality AQ Index Pollutant
Not available.

Snow Depth

Station Depth Elevation

Earthquake Activity

City Distance Mag. Time & Date
Minimum magnitude displayed is 2.5.

Coastal Water Temperatures

Place Temperature

Nearby Weather Stations